« 岩手駐屯地創立65周年記念行事その2 滝沢市 2022/6/19 sun | トップページ | 第1特科団創隊・北千歳駐屯地開庁70周年記念行事 千歳市 2022/6/26 sun »

2022/07/02

定点 富山空港 2022/7/2 sat

久しぶりの地元です。おっとり刀で、ビーチを覗いてから

RJNT 020200Z 36009KT 9999 FEW040 32/21 Q1014

20220702_rjnt_00tonbi

空の先輩は、青空が映えます。

20220702_rjnt_01ja59an

ANA315 RJTT-RJNT JA59AN B737-881

20220702_rjnt_02indigirka

INDIGIRKA 5VDQ8 TG

中古車ビジネスは継続しているようで、この後豊橋へ向かった。

RJNT 020300Z 02006KT 350V050 9999 FEW030 33/22 Q1014

20220702_rjnt_03ja59an

20220702_rjnt_04ja59an

ANA316 RJNT-RJTT JA59AN B737-881

20220702_rjnt_05ja80an

20220702_rjnt_06ja80an

今、河原は太公望のシーズン

20220702_rjnt_07ja80an

ANA1182 RJCC-RJNT JA90AN B737-8AL

20220702_rjnt_08ja30dw

小松で散々ホールドされた後にIFRで進入して、ブレイク

20220702_rjnt_09ja30dw

ブルジョアな飛行機です。

20220702_rjnt_10ja30dw

JA30DW RJFK-RJNT JA30DW King Air 350i

20220702_rjnt_11ja30dw

どんなお客さんなんざんしょ

RJNT 020400Z 36009KT 9999 FEW030 33/21 Q1013

20220702_rjnt_12ja80an

20220702_rjnt_13ja80an

ANA1181 RJNT-RJCC JA90AN B737-8AL

RJNT 020500Z 01008KT 330V040 9999 FEW030 33/21 Q1013

20220702_rjnt_14ja30dw

JA30DW RJNT-RJFR JA30DW B300

20220702_rjnt_15ja30dw

また来てくださいね。

RJNT 020600Z 02004KT 310V100 9999 FEW020 34/20 Q1013

20220702_rjnt_16ja139t

JA139T↑ AW139 富山県警察

早朝から捜索隊を投入していた南砺の件、発見された様です。

追記 この日は発見にいたらず、よく3日朝発見され収容された模様です。

20220702_rjnt_17ja139t

すぐピックアップして帰投、重複が入っている模様。

20220702_rjnt_18ja139t

JA139T↑ ストップオーバーで、すぐ離陸

20220702_rjnt_19ja139t

今度は立山方面へS&R

休みは、休みにあらず。

 

|

« 岩手駐屯地創立65周年記念行事その2 滝沢市 2022/6/19 sun | トップページ | 第1特科団創隊・北千歳駐屯地開庁70周年記念行事 千歳市 2022/6/26 sun »

富山空港」カテゴリの記事

コメント

JA30DW^_^良いですなぁ
FR24で見てましたがKMCでだいぶん待たされてましたねー

投稿: | 2022/07/04 11:57

コメントを書く



(ウェブ上には掲載しません)


コメントは記事投稿者が公開するまで表示されません。



« 岩手駐屯地創立65周年記念行事その2 滝沢市 2022/6/19 sun | トップページ | 第1特科団創隊・北千歳駐屯地開庁70周年記念行事 千歳市 2022/6/26 sun »